sensor_id;sensor_type;location;lat;lon;timestamp;pressure;altitude;pressure_sealevel;temperature;humidity
77366;BME280;66430;50.182;11.704;2023-05-24T00:01:56;94928.26;;;11.74;37.40
77366;BME280;66430;50.182;11.704;2023-05-24T00:04:22;94926.53;;;11.82;37.16
77366;BME280;66430;50.182;11.704;2023-05-24T00:06:47;94928.95;;;11.84;37.37
77366;BME280;66430;50.182;11.704;2023-05-24T00:09:12;94931.01;;;11.84;37.18
77366;BME280;66430;50.182;11.704;2023-05-24T00:11:38;94927.79;;;11.63;37.34
77366;BME280;66430;50.182;11.704;2023-05-24T00:14:03;94926.48;;;11.91;37.25
77366;BME280;66430;50.182;11.704;2023-05-24T00:16:29;94929.10;;;11.74;37.50
77366;BME280;66430;50.182;11.704;2023-05-24T00:18:53;94926.37;;;11.58;37.82
77366;BME280;66430;50.182;11.704;2023-05-24T00:21:19;94927.21;;;11.59;37.66
77366;BME280;66430;50.182;11.704;2023-05-24T00:23:44;94918.54;;;11.74;37.61
77366;BME280;66430;50.182;11.704;2023-05-24T00:26:10;94919.82;;;11.54;37.63
77366;BME280;66430;50.182;11.704;2023-05-24T00:28:35;94918.50;;;11.63;37.55
77366;BME280;66430;50.182;11.704;2023-05-24T00:31:01;94916.73;;;11.66;37.59
77366;BME280;66430;50.182;11.704;2023-05-24T00:33:26;94919.38;;;11.61;37.70
77366;BME280;66430;50.182;11.704;2023-05-24T00:35:51;94918.45;;;11.67;37.39
77366;BME280;66430;50.182;11.704;2023-05-24T00:38:16;94917.14;;;11.76;37.79
77366;BME280;66430;50.182;11.704;2023-05-24T00:40:42;94919.21;;;11.51;37.78
77366;BME280;66430;50.182;11.704;2023-05-24T00:43:07;94919.62;;;11.49;37.79
77366;BME280;66430;50.182;11.704;2023-05-24T00:45:33;94922.15;;;11.39;37.86
77366;BME280;66430;50.182;11.704;2023-05-24T00:47:58;94922.51;;;11.64;37.66
77366;BME280;66430;50.182;11.704;2023-05-24T00:50:24;94925.20;;;11.39;37.82
77366;BME280;66430;50.182;11.704;2023-05-24T00:52:50;94926.08;;;11.75;37.47
77366;BME280;66430;50.182;11.704;2023-05-24T00:55:15;94923.41;;;11.63;37.71
77366;BME280;66430;50.182;11.704;2023-05-24T00:57:41;94923.88;;;11.31;37.66
77366;BME280;66430;50.182;11.704;2023-05-24T01:00:07;94921.71;;;11.00;38.19
77366;BME280;66430;50.182;11.704;2023-05-24T01:02:31;94918.75;;;11.37;38.01
77366;BME280;66430;50.182;11.704;2023-05-24T01:04:56;94920.99;;;11.17;38.37
77366;BME280;66430;50.182;11.704;2023-05-24T01:07:30;94921.29;;;11.37;38.05
77366;BME280;66430;50.182;11.704;2023-05-24T01:09:58;94919.31;;;11.05;37.99
77366;BME280;66430;50.182;11.704;2023-05-24T01:12:22;94917.65;;;11.14;38.00
77366;BME280;66430;50.182;11.704;2023-05-24T01:14:46;94919.11;;;11.48;37.97
77366;BME280;66430;50.182;11.704;2023-05-24T01:17:09;94917.39;;;11.24;38.01
77366;BME280;66430;50.182;11.704;2023-05-24T01:19:42;94914.27;;;11.07;38.60
77366;BME280;66430;50.182;11.704;2023-05-24T01:22:07;94914.26;;;11.13;38.35
77366;BME280;66430;50.182;11.704;2023-05-24T01:24:28;94908.84;;;11.32;37.92
77366;BME280;66430;50.182;11.704;2023-05-24T01:27:00;94907.65;;;11.46;37.72
77366;BME280;66430;50.182;11.704;2023-05-24T01:29:12;94902.61;;;10.95;37.67
77366;BME280;66430;50.182;11.704;2023-05-24T01:31:37;94906.45;;;11.39;37.70
77366;BME280;66430;50.182;11.704;2023-05-24T01:34:03;94903.58;;;11.12;37.79
77366;BME280;66430;50.182;11.704;2023-05-24T01:36:28;94902.31;;;10.84;38.14
77366;BME280;66430;50.182;11.704;2023-05-24T01:38:53;94900.79;;;11.12;37.99
77366;BME280;66430;50.182;11.704;2023-05-24T01:41:29;94900.89;;;11.38;37.64
77366;BME280;66430;50.182;11.704;2023-05-24T01:43:51;94905.12;;;11.13;37.71
77366;BME280;66430;50.182;11.704;2023-05-24T01:46:20;94901.14;;;10.84;38.21
77366;BME280;66430;50.182;11.704;2023-05-24T01:48:43;94903.01;;;10.93;38.19
77366;BME280;66430;50.182;11.704;2023-05-24T01:51:03;94902.68;;;11.09;38.09
77366;BME280;66430;50.182;11.704;2023-05-24T01:53:32;94902.98;;;10.76;38.31
77366;BME280;66430;50.182;11.704;2023-05-24T01:55:54;94900.41;;;10.90;38.08
77366;BME280;66430;50.182;11.704;2023-05-24T01:58:18;94897.60;;;10.68;38.31
77366;BME280;66430;50.182;11.704;2023-05-24T02:00:42;94899.34;;;10.68;38.58
77366;BME280;66430;50.182;11.704;2023-05-24T02:03:07;94899.14;;;11.08;38.25
77366;BME280;66430;50.182;11.704;2023-05-24T02:05:32;94897.33;;;10.59;38.11
77366;BME280;66430;50.182;11.704;2023-05-24T02:07:58;94899.76;;;10.78;38.30
77366;BME280;66430;50.182;11.704;2023-05-24T02:10:23;94895.66;;;10.67;38.55
77366;BME280;66430;50.182;11.704;2023-05-24T02:12:49;94897.05;;;10.81;38.41
77366;BME280;66430;50.182;11.704;2023-05-24T02:15:15;94895.40;;;10.87;38.51
77366;BME280;66430;50.182;11.704;2023-05-24T02:17:41;94899.17;;;10.77;38.82
77366;BME280;66430;50.182;11.704;2023-05-24T02:20:07;94901.46;;;10.86;38.51
77366;BME280;66430;50.182;11.704;2023-05-24T02:22:31;94906.66;;;10.96;38.15
77366;BME280;66430;50.182;11.704;2023-05-24T02:24:57;94902.08;;;10.51;38.43
77366;BME280;66430;50.182;11.704;2023-05-24T02:27:22;94899.79;;;10.27;38.57
77366;BME280;66430;50.182;11.704;2023-05-24T02:29:47;94899.76;;;10.27;38.68
77366;BME280;66430;50.182;11.704;2023-05-24T02:32:13;94900.15;;;10.49;38.50
77366;BME280;66430;50.182;11.704;2023-05-24T02:34:38;94901.48;;;10.91;38.27
77366;BME280;66430;50.182;11.704;2023-05-24T02:37:04;94893.81;;;10.59;38.25
77366;BME280;66430;50.182;11.704;2023-05-24T02:39:29;94893.57;;;10.57;37.98
77366;BME280;66430;50.182;11.704;2023-05-24T02:41:54;94892.44;;;10.13;38.69
77366;BME280;66430;50.182;11.704;2023-05-24T02:44:20;94889.28;;;10.27;38.76
77366;BME280;66430;50.182;11.704;2023-05-24T02:46:45;94889.88;;;10.41;38.03
77366;BME280;66430;50.182;11.704;2023-05-24T02:49:10;94885.84;;;10.41;37.92
77366;BME280;66430;50.182;11.704;2023-05-24T02:51:36;94884.07;;;10.54;38.19
77366;BME280;66430;50.182;11.704;2023-05-24T02:54:01;94879.28;;;10.66;38.14
77366;BME280;66430;50.182;11.704;2023-05-24T02:56:27;94886.14;;;10.09;38.79
77366;BME280;66430;50.182;11.704;2023-05-24T02:58:52;94884.04;;;10.33;37.94
77366;BME280;66430;50.182;11.704;2023-05-24T03:01:18;94886.31;;;10.14;38.29
77366;BME280;66430;50.182;11.704;2023-05-24T03:03:43;94889.32;;;9.93;38.92
77366;BME280;66430;50.182;11.704;2023-05-24T03:06:08;94887.28;;;9.94;38.69
77366;BME280;66430;50.182;11.704;2023-05-24T03:08:34;94889.83;;;10.14;38.21
77366;BME280;66430;50.182;11.704;2023-05-24T03:10:59;94892.35;;;10.25;38.16
77366;BME280;66430;50.182;11.704;2023-05-24T03:13:25;94893.97;;;10.06;38.25
77366;BME280;66430;50.182;11.704;2023-05-24T03:15:50;94893.52;;;10.03;38.64
77366;BME280;66430;50.182;11.704;2023-05-24T03:18:15;94895.49;;;10.22;38.29
77366;BME280;66430;50.182;11.704;2023-05-24T03:20:41;94896.87;;;10.12;38.31
77366;BME280;66430;50.182;11.704;2023-05-24T03:23:06;94897.07;;;10.05;38.20
77366;BME280;66430;50.182;11.704;2023-05-24T03:25:31;94898.46;;;10.14;37.76
77366;BME280;66430;50.182;11.704;2023-05-24T03:27:57;94896.65;;;10.36;38.13
77366;BME280;66430;50.182;11.704;2023-05-24T03:30:22;94897.19;;;10.02;38.20
77366;BME280;66430;50.182;11.704;2023-05-24T03:32:47;94890.89;;;10.14;38.26
77366;BME280;66430;50.182;11.704;2023-05-24T03:35:13;94895.76;;;10.11;38.21
77366;BME280;66430;50.182;11.704;2023-05-24T03:37:38;94895.17;;;10.45;37.99
77366;BME280;66430;50.182;11.704;2023-05-24T03:40:07;94895.53;;;9.87;38.38
77366;BME280;66430;50.182;11.704;2023-05-24T03:42:30;94893.35;;;10.46;38.08
77366;BME280;66430;50.182;11.704;2023-05-24T03:44:55;94900.34;;;10.43;38.29
77366;BME280;66430;50.182;11.704;2023-05-24T03:47:20;94899.79;;;10.74;37.91
77366;BME280;66430;50.182;11.704;2023-05-24T03:49:46;94904.66;;;10.37;38.06
77366;BME280;66430;50.182;11.704;2023-05-24T03:52:12;94906.77;;;10.01;38.42
77366;BME280;66430;50.182;11.704;2023-05-24T03:54:37;94900.87;;;10.36;38.27
77366;BME280;66430;50.182;11.704;2023-05-24T03:57:03;94898.96;;;10.30;38.33
77366;BME280;66430;50.182;11.704;2023-05-24T03:59:29;94899.72;;;10.23;38.36
77366;BME280;66430;50.182;11.704;2023-05-24T04:01:54;94902.86;;;10.13;38.12
77366;BME280;66430;50.182;11.704;2023-05-24T04:04:19;94905.10;;;10.52;37.94
77366;BME280;66430;50.182;11.704;2023-05-24T04:06:44;94907.75;;;10.37;37.70
77366;BME280;66430;50.182;11.704;2023-05-24T04:09:10;94909.04;;;10.07;37.87
77366;BME280;66430;50.182;11.704;2023-05-24T04:11:36;94907.24;;;10.19;37.99
77366;BME280;66430;50.182;11.704;2023-05-24T04:14:02;94905.26;;;10.11;37.62
77366;BME280;66430;50.182;11.704;2023-05-24T04:16:27;94902.64;;;10.56;37.77
77366;BME280;66430;50.182;11.704;2023-05-24T04:18:52;94901.15;;;10.37;37.77
77366;BME280;66430;50.182;11.704;2023-05-24T04:21:17;94906.68;;;10.08;37.77
77366;BME280;66430;50.182;11.704;2023-05-24T04:23:42;94907.57;;;10.50;38.03
77366;BME280;66430;50.182;11.704;2023-05-24T04:26:08;94909.62;;;10.27;37.93
77366;BME280;66430;50.182;11.704;2023-05-24T04:28:33;94914.09;;;10.51;37.85
77366;BME280;66430;50.182;11.704;2023-05-24T04:30:59;94921.41;;;9.99;38.26
77366;BME280;66430;50.182;11.704;2023-05-24T04:33:24;94922.57;;;10.05;38.05
77366;BME280;66430;50.182;11.704;2023-05-24T04:35:50;94924.29;;;10.43;38.15
77366;BME280;66430;50.182;11.704;2023-05-24T04:38:15;94924.52;;;10.34;38.51
77366;BME280;66430;50.182;11.704;2023-05-24T04:40:41;94929.09;;;9.73;39.03
77366;BME280;66430;50.182;11.704;2023-05-24T04:43:06;94933.18;;;9.54;39.16
77366;BME280;66430;50.182;11.704;2023-05-24T04:45:32;94932.32;;;9.03;39.92
77366;BME280;66430;50.182;11.704;2023-05-24T04:47:57;94936.36;;;9.36;39.23
77366;BME280;66430;50.182;11.704;2023-05-24T04:50:23;94935.88;;;9.42;39.45
77366;BME280;66430;50.182;11.704;2023-05-24T04:52:48;94940.13;;;9.29;39.47
77366;BME280;66430;50.182;11.704;2023-05-24T04:55:15;94942.29;;;9.70;38.82
77366;BME280;66430;50.182;11.704;2023-05-24T04:57:39;94941.50;;;10.00;38.79
77366;BME280;66430;50.182;11.704;2023-05-24T05:00:06;94939.08;;;10.04;38.15
77366;BME280;66430;50.182;11.704;2023-05-24T05:02:31;94938.45;;;9.31;38.98
77366;BME280;66430;50.182;11.704;2023-05-24T05:04:56;94943.39;;;9.75;37.81
77366;BME280;66430;50.182;11.704;2023-05-24T05:07:21;94945.14;;;9.92;38.03
77366;BME280;66430;50.182;11.704;2023-05-24T05:09:46;94947.25;;;9.92;37.54
77366;BME280;66430;50.182;11.704;2023-05-24T05:12:11;94945.94;;;10.04;37.83
77366;BME280;66430;50.182;11.704;2023-05-24T05:14:37;94948.91;;;10.15;37.22
77366;BME280;66430;50.182;11.704;2023-05-24T05:17:02;94948.06;;;9.79;37.97
77366;BME280;66430;50.182;11.704;2023-05-24T05:19:29;94950.05;;;9.93;38.15
77366;BME280;66430;50.182;11.704;2023-05-24T05:21:53;94950.93;;;9.83;37.93
77366;BME280;66430;50.182;11.704;2023-05-24T05:24:19;94951.10;;;9.92;37.66
77366;BME280;66430;50.182;11.704;2023-05-24T05:26:44;94960.20;;;9.74;38.43
77366;BME280;66430;50.182;11.704;2023-05-24T05:29:10;94962.03;;;9.64;38.82
77366;BME280;66430;50.182;11.704;2023-05-24T05:31:37;94959.89;;;9.98;38.19
77366;BME280;66430;50.182;11.704;2023-05-24T05:34:01;94958.05;;;9.72;38.02
77366;BME280;66430;50.182;11.704;2023-05-24T05:36:26;94959.52;;;9.82;38.82
77366;BME280;66430;50.182;11.704;2023-05-24T05:38:51;94960.88;;;9.33;38.76
77366;BME280;66430;50.182;11.704;2023-05-24T05:41:17;94961.87;;;8.88;39.50
77366;BME280;66430;50.182;11.704;2023-05-24T05:43:43;94962.24;;;8.85;39.60
77366;BME280;66430;50.182;11.704;2023-05-24T05:46:08;94960.31;;;8.90;40.28
77366;BME280;66430;50.182;11.704;2023-05-24T05:48:33;94961.78;;;8.58;39.65
77366;BME280;66430;50.182;11.704;2023-05-24T05:50:59;94967.73;;;8.86;39.21
77366;BME280;66430;50.182;11.704;2023-05-24T05:53:25;94965.02;;;8.48;39.55
77366;BME280;66430;50.182;11.704;2023-05-24T05:55:49;94970.64;;;8.63;39.32
77366;BME280;66430;50.182;11.704;2023-05-24T05:58:15;94965.03;;;8.61;39.35
77366;BME280;66430;50.182;11.704;2023-05-24T06:00:40;94971.35;;;8.54;40.39
77366;BME280;66430;50.182;11.704;2023-05-24T06:03:06;94977.21;;;8.79;39.22
77366;BME280;66430;50.182;11.704;2023-05-24T06:05:31;94980.52;;;9.16;39.35
77366;BME280;66430;50.182;11.704;2023-05-24T06:07:57;94978.33;;;9.22;38.32
77366;BME280;66430;50.182;11.704;2023-05-24T06:10:22;94979.00;;;9.50;38.58
77366;BME280;66430;50.182;11.704;2023-05-24T06:12:47;94981.28;;;9.85;37.92
77366;BME280;66430;50.182;11.704;2023-05-24T06:15:12;94975.96;;;9.68;38.80
77366;BME280;66430;50.182;11.704;2023-05-24T06:17:38;94979.01;;;9.28;39.00
77366;BME280;66430;50.182;11.704;2023-05-24T06:20:04;94981.34;;;9.28;39.72
77366;BME280;66430;50.182;11.704;2023-05-24T06:22:30;94985.25;;;9.08;39.58
77366;BME280;66430;50.182;11.704;2023-05-24T06:24:54;94987.15;;;9.31;38.43
77366;BME280;66430;50.182;11.704;2023-05-24T06:27:20;94991.03;;;9.27;39.49
77366;BME280;66430;50.182;11.704;2023-05-24T06:29:45;94991.49;;;8.99;39.11
77366;BME280;66430;50.182;11.704;2023-05-24T06:32:11;94995.45;;;9.03;39.33
77366;BME280;66430;50.182;11.704;2023-05-24T06:34:36;94996.95;;;8.92;39.10
77366;BME280;66430;50.182;11.704;2023-05-24T06:37:03;94996.83;;;8.87;39.23
77366;BME280;66430;50.182;11.704;2023-05-24T06:39:28;94997.72;;;9.26;38.95
77366;BME280;66430;50.182;11.704;2023-05-24T06:41:53;94999.70;;;9.34;38.88
77366;BME280;66430;50.182;11.704;2023-05-24T06:44:19;95003.53;;;9.28;38.74
77366;BME280;66430;50.182;11.704;2023-05-24T06:46:44;95005.87;;;9.01;39.16
77366;BME280;66430;50.182;11.704;2023-05-24T06:49:10;95008.87;;;9.43;38.24
77366;BME280;66430;50.182;11.704;2023-05-24T06:51:35;95007.84;;;9.14;38.64
77366;BME280;66430;50.182;11.704;2023-05-24T06:54:01;95003.74;;;9.46;38.52
77366;BME280;66430;50.182;11.704;2023-05-24T06:56:26;95010.66;;;8.73;38.48
77366;BME280;66430;50.182;11.704;2023-05-24T06:58:52;95020.42;;;9.52;38.16
77366;BME280;66430;50.182;11.704;2023-05-24T07:01:18;95023.82;;;9.44;38.42
77366;BME280;66430;50.182;11.704;2023-05-24T07:03:43;95028.94;;;9.44;38.06
77366;BME280;66430;50.182;11.704;2023-05-24T07:06:14;95036.24;;;9.61;38.09
77366;BME280;66430;50.182;11.704;2023-05-24T07:08:34;95038.37;;;9.66;38.06
77366;BME280;66430;50.182;11.704;2023-05-24T07:10:59;95035.57;;;9.17;38.38
77366;BME280;66430;50.182;11.704;2023-05-24T07:13:25;95036.40;;;9.40;37.42
77366;BME280;66430;50.182;11.704;2023-05-24T07:15:52;95040.56;;;9.65;37.64
77366;BME280;66430;50.182;11.704;2023-05-24T07:18:16;95040.71;;;9.97;37.74
77366;BME280;66430;50.182;11.704;2023-05-24T07:20:42;95041.42;;;9.58;36.51
77366;BME280;66430;50.182;11.704;2023-05-24T07:23:07;95033.92;;;9.59;38.12
77366;BME280;66430;50.182;11.704;2023-05-24T07:25:32;95039.64;;;9.47;38.20
77366;BME280;66430;50.182;11.704;2023-05-24T07:27:58;95039.46;;;9.41;37.64
77366;BME280;66430;50.182;11.704;2023-05-24T07:30:23;95040.48;;;9.51;37.32
77366;BME280;66430;50.182;11.704;2023-05-24T07:32:48;95042.42;;;9.39;38.26
77366;BME280;66430;50.182;11.704;2023-05-24T07:35:14;95041.65;;;9.46;37.71
77366;BME280;66430;50.182;11.704;2023-05-24T07:37:39;95039.97;;;9.76;37.66
77366;BME280;66430;50.182;11.704;2023-05-24T07:40:06;95036.61;;;9.78;36.84
77366;BME280;66430;50.182;11.704;2023-05-24T07:42:30;95035.20;;;10.07;37.57
77366;BME280;66430;50.182;11.704;2023-05-24T07:44:56;95037.75;;;10.13;37.56
77366;BME280;66430;50.182;11.704;2023-05-24T07:47:21;95039.03;;;10.13;36.89
77366;BME280;66430;50.182;11.704;2023-05-24T07:49:46;95037.78;;;10.11;36.11
77366;BME280;66430;50.182;11.704;2023-05-24T07:52:12;95035.63;;;10.33;36.73
77366;BME280;66430;50.182;11.704;2023-05-24T07:54:38;95035.38;;;10.57;35.34
77366;BME280;66430;50.182;11.704;2023-05-24T07:57:04;95036.17;;;10.31;35.27
77366;BME280;66430;50.182;11.704;2023-05-24T07:59:29;95034.85;;;10.39;34.99
77366;BME280;66430;50.182;11.704;2023-05-24T08:01:55;95036.34;;;10.56;35.43
77366;BME280;66430;50.182;11.704;2023-05-24T08:04:20;95034.28;;;11.23;35.66
77366;BME280;66430;50.182;11.704;2023-05-24T08:06:45;95035.82;;;10.53;35.34
77366;BME280;66430;50.182;11.704;2023-05-24T08:09:11;95035.03;;;10.38;35.82
77366;BME280;66430;50.182;11.704;2023-05-24T08:11:37;95035.84;;;10.41;36.09
77366;BME280;66430;50.182;11.704;2023-05-24T08:14:03;95032.36;;;10.55;36.22
77366;BME280;66430;50.182;11.704;2023-05-24T08:16:30;95030.42;;;10.70;35.59
77366;BME280;66430;50.182;11.704;2023-05-24T08:18:53;95033.72;;;10.39;35.82
77366;BME280;66430;50.182;11.704;2023-05-24T08:21:18;95029.67;;;10.43;34.03
77366;BME280;66430;50.182;11.704;2023-05-24T08:23:44;95029.63;;;10.74;35.69
77366;BME280;66430;50.182;11.704;2023-05-24T08:26:09;95029.98;;;11.05;33.81
77366;BME280;66430;50.182;11.704;2023-05-24T08:28:34;95033.90;;;10.95;34.47
77366;BME280;66430;50.182;11.704;2023-05-24T08:31:00;95033.02;;;10.84;35.09
77366;BME280;66430;50.182;11.704;2023-05-24T08:33:27;95034.37;;;11.40;34.61
77366;BME280;66430;50.182;11.704;2023-05-24T08:35:51;95033.40;;;11.37;32.92
77366;BME280;66430;50.182;11.704;2023-05-24T08:38:16;95036.23;;;11.19;35.38
77366;BME280;66430;50.182;11.704;2023-05-24T08:40:43;95034.87;;;11.34;33.16
77366;BME280;66430;50.182;11.704;2023-05-24T08:43:07;95034.60;;;11.40;33.59
77366;BME280;66430;50.182;11.704;2023-05-24T08:45:34;95035.44;;;11.56;33.94
77366;BME280;66430;50.182;11.704;2023-05-24T08:47:59;95034.85;;;11.79;34.03
77366;BME280;66430;50.182;11.704;2023-05-24T08:50:23;95041.10;;;11.51;34.91
77366;BME280;66430;50.182;11.704;2023-05-24T08:52:49;95046.23;;;11.71;33.79
77366;BME280;66430;50.182;11.704;2023-05-24T08:55:14;95044.45;;;12.19;32.95
77366;BME280;66430;50.182;11.704;2023-05-24T08:57:40;95044.63;;;12.31;31.70
77366;BME280;66430;50.182;11.704;2023-05-24T09:00:08;95046.42;;;12.34;32.44
77366;BME280;66430;50.182;11.704;2023-05-24T09:02:31;95048.69;;;12.70;33.67
77366;BME280;66430;50.182;11.704;2023-05-24T09:04:56;95052.06;;;12.15;31.88
77366;BME280;66430;50.182;11.704;2023-05-24T09:07:22;95053.55;;;12.08;31.46
77366;BME280;66430;50.182;11.704;2023-05-24T09:09:51;95052.54;;;12.51;30.95
77366;BME280;66430;50.182;11.704;2023-05-24T09:12:16;95047.03;;;12.70;33.04
77366;BME280;66430;50.182;11.704;2023-05-24T09:14:38;95050.25;;;12.40;34.09
77366;BME280;66430;50.182;11.704;2023-05-24T09:17:03;95044.97;;;13.26;33.49
77366;BME280;66430;50.182;11.704;2023-05-24T09:19:28;95047.16;;;12.99;30.68
77366;BME280;66430;50.182;11.704;2023-05-24T09:21:54;95046.39;;;12.86;32.49
77366;BME280;66430;50.182;11.704;2023-05-24T09:24:22;95048.70;;;13.21;29.46
77366;BME280;66430;50.182;11.704;2023-05-24T09:26:48;95049.51;;;13.22;30.90
77366;BME280;66430;50.182;11.704;2023-05-24T09:29:10;95049.22;;;13.36;31.31
77366;BME280;66430;50.182;11.704;2023-05-24T09:31:37;95052.42;;;13.05;30.02
77366;BME280;66430;50.182;11.704;2023-05-24T09:34:03;95052.49;;;13.54;28.61
77366;BME280;66430;50.182;11.704;2023-05-24T09:36:27;95044.83;;;13.69;28.20
77366;BME280;66430;50.182;11.704;2023-05-24T09:39:05;95047.87;;;13.43;28.15
77366;BME280;66430;50.182;11.704;2023-05-24T09:41:20;95044.32;;;13.29;30.65
77366;BME280;66430;50.182;11.704;2023-05-24T09:43:47;95044.31;;;13.69;27.78
77366;BME280;66430;50.182;11.704;2023-05-24T09:46:08;95044.03;;;13.28;28.60
77366;BME280;66430;50.182;11.704;2023-05-24T09:48:33;95044.71;;;14.00;30.65
77366;BME280;66430;50.182;11.704;2023-05-24T09:51:04;95046.65;;;14.17;29.99
77366;BME280;66430;50.182;11.704;2023-05-24T09:53:25;95047.69;;;14.19;29.96
77366;BME280;66430;50.182;11.704;2023-05-24T09:55:50;95036.16;;;13.86;30.67
77366;BME280;66430;50.182;11.704;2023-05-24T09:58:16;95039.36;;;13.57;30.53
77366;BME280;66430;50.182;11.704;2023-05-24T10:00:41;95034.79;;;13.88;28.17
77366;BME280;66430;50.182;11.704;2023-05-24T10:03:10;95038.43;;;14.25;30.16
77366;BME280;66430;50.182;11.704;2023-05-24T10:05:32;95046.40;;;14.42;29.88
77366;BME280;66430;50.182;11.704;2023-05-24T10:07:57;95050.43;;;14.59;27.52
77366;BME280;66430;50.182;11.704;2023-05-24T10:10:23;95048.81;;;14.85;27.12
77366;BME280;66430;50.182;11.704;2023-05-24T10:12:48;95047.22;;;14.80;26.34
77366;BME280;66430;50.182;11.704;2023-05-24T10:15:13;95043.24;;;14.76;26.12
77366;BME280;66430;50.182;11.704;2023-05-24T10:17:39;95042.88;;;14.94;27.58
77366;BME280;66430;50.182;11.704;2023-05-24T10:20:05;95042.06;;;15.17;29.10
77366;BME280;66430;50.182;11.704;2023-05-24T10:22:31;95040.11;;;14.91;29.50
77366;BME280;66430;50.182;11.704;2023-05-24T10:24:56;95047.47;;;15.27;29.59
77366;BME280;66430;50.182;11.704;2023-05-24T10:27:22;95046.97;;;15.18;26.13
77366;BME280;66430;50.182;11.704;2023-05-24T10:29:53;95046.31;;;15.40;25.38
77366;BME280;66430;50.182;11.704;2023-05-24T10:32:13;95038.13;;;15.00;25.99
77366;BME280;66430;50.182;11.704;2023-05-24T10:34:37;95036.30;;;14.90;26.16
77366;BME280;66430;50.182;11.704;2023-05-24T10:37:02;95039.37;;;14.72;27.11
77366;BME280;66430;50.182;11.704;2023-05-24T10:39:27;95033.26;;;14.43;28.01
77366;BME280;66430;50.182;11.704;2023-05-24T10:41:55;95042.38;;;14.52;29.19
77366;BME280;66430;50.182;11.704;2023-05-24T10:44:18;95042.41;;;15.09;29.09
77366;BME280;66430;50.182;11.704;2023-05-24T10:49:12;95037.29;;;15.44;26.69
77366;BME280;66430;50.182;11.704;2023-05-24T10:51:35;95031.00;;;15.38;26.20
77366;BME280;66430;50.182;11.704;2023-05-24T10:54:10;95031.97;;;14.98;24.30
77366;BME280;66430;50.182;11.704;2023-05-24T10:56:27;95033.08;;;15.05;27.92
77366;BME280;66430;50.182;11.704;2023-05-24T10:58:57;95038.52;;;15.16;25.96
77366;BME280;66430;50.182;11.704;2023-05-24T11:01:23;95033.86;;;15.20;25.35
77366;BME280;66430;50.182;11.704;2023-05-24T11:03:42;95033.51;;;15.32;25.85
77366;BME280;66430;50.182;11.704;2023-05-24T11:06:06;95034.25;;;15.05;27.55
77366;BME280;66430;50.182;11.704;2023-05-24T11:08:33;95037.51;;;15.45;26.11
77366;BME280;66430;50.182;11.704;2023-05-24T11:11:02;95029.29;;;15.09;27.10
77366;BME280;66430;50.182;11.704;2023-05-24T11:13:26;95036.10;;;15.44;26.44
77366;BME280;66430;50.182;11.704;2023-05-24T11:15:49;95028.96;;;15.15;23.74
77366;BME280;66430;50.182;11.704;2023-05-24T11:18:13;95028.70;;;15.62;24.97
77366;BME280;66430;50.182;11.704;2023-05-24T11:20:40;95032.62;;;14.92;27.51
77366;BME280;66430;50.182;11.704;2023-05-24T11:23:04;95032.47;;;14.95;25.82
77366;BME280;66430;50.182;11.704;2023-05-24T11:25:31;95030.64;;;15.49;25.26
77366;BME280;66430;50.182;11.704;2023-05-24T11:27:57;95033.90;;;15.24;24.60
77366;BME280;66430;50.182;11.704;2023-05-24T11:30:22;95033.07;;;15.39;23.76
77366;BME280;66430;50.182;11.704;2023-05-24T11:32:47;95033.70;;;15.28;25.69
77366;BME280;66430;50.182;11.704;2023-05-24T11:35:12;95038.03;;;15.52;24.08
77366;BME280;66430;50.182;11.704;2023-05-24T11:37:36;95027.03;;;15.80;24.42
77366;BME280;66430;50.182;11.704;2023-05-24T11:40:01;95024.59;;;16.09;24.06
77366;BME280;66430;50.182;11.704;2023-05-24T11:42:27;95023.04;;;16.17;24.50
77366;BME280;66430;50.182;11.704;2023-05-24T11:44:52;95023.16;;;15.83;24.24
77366;BME280;66430;50.182;11.704;2023-05-24T11:47:20;95023.87;;;15.48;24.81
77366;BME280;66430;50.182;11.704;2023-05-24T11:49:42;95024.89;;;15.33;25.24
77366;BME280;66430;50.182;11.704;2023-05-24T11:52:08;95017.47;;;15.97;24.87
77366;BME280;66430;50.182;11.704;2023-05-24T11:54:33;95016.85;;;15.73;24.59
77366;BME280;66430;50.182;11.704;2023-05-24T11:56:58;95027.34;;;15.76;25.20
77366;BME280;66430;50.182;11.704;2023-05-24T11:59:25;95027.32;;;15.34;25.51
77366;BME280;66430;50.182;11.704;2023-05-24T12:01:56;95025.57;;;15.87;23.81
77366;BME280;66430;50.182;11.704;2023-05-24T12:04:14;95021.81;;;15.87;25.48
77366;BME280;66430;50.182;11.704;2023-05-24T12:06:41;95024.48;;;16.35;25.42
77366;BME280;66430;50.182;11.704;2023-05-24T12:09:05;95025.86;;;15.43;28.21
77366;BME280;66430;50.182;11.704;2023-05-24T12:11:30;95021.97;;;16.17;26.64
77366;BME280;66430;50.182;11.704;2023-05-24T12:13:57;95029.10;;;16.22;25.05
77366;BME280;66430;50.182;11.704;2023-05-24T12:16:21;95022.17;;;15.76;24.79
77366;BME280;66430;50.182;11.704;2023-05-24T12:18:46;95017.78;;;15.84;23.83
77366;BME280;66430;50.182;11.704;2023-05-24T12:21:11;95024.77;;;15.02;23.14
77366;BME280;66430;50.182;11.704;2023-05-24T12:23:36;95020.59;;;15.25;24.00
77366;BME280;66430;50.182;11.704;2023-05-24T12:26:03;95013.92;;;15.37;24.54
77366;BME280;66430;50.182;11.704;2023-05-24T12:28:31;95013.80;;;15.43;25.66
77366;BME280;66430;50.182;11.704;2023-05-24T12:30:53;95015.76;;;15.88;24.13
77366;BME280;66430;50.182;11.704;2023-05-24T12:33:18;95008.56;;;15.98;24.84
77366;BME280;66430;50.182;11.704;2023-05-24T12:35:44;95016.89;;;16.42;26.04
77366;BME280;66430;50.182;11.704;2023-05-24T12:38:11;95008.92;;;16.19;22.57
77366;BME280;66430;50.182;11.704;2023-05-24T12:40:35;95020.25;;;15.94;24.07
77366;BME280;66430;50.182;11.704;2023-05-24T12:43:01;95012.80;;;16.40;23.20
77366;BME280;66430;50.182;11.704;2023-05-24T12:45:26;95024.51;;;16.04;24.28